createdAt,value
2022-12-04T00:00:54.847Z,101337.16
2022-12-04T00:01:54.921Z,101330.98
2022-12-04T00:02:55.017Z,101334.12
2022-12-04T00:03:55.576Z,101331.45
2022-12-04T00:04:54.968Z,101329.52
2022-12-04T00:06:02.594Z,101332.97
2022-12-04T00:06:59.265Z,101329.63
2022-12-04T00:07:59.278Z,101331.52
2022-12-04T00:08:59.225Z,101329.61
2022-12-04T00:09:58.868Z,101330.92
2022-12-04T00:10:58.888Z,101334.62
2022-12-04T00:11:58.886Z,101332.78
2022-12-04T00:12:58.929Z,101332.56
2022-12-04T00:14:04.837Z,101332.17
2022-12-04T00:16:05.512Z,101328.06
2022-12-04T00:17:04.227Z,101327.82
2022-12-04T00:18:04.290Z,101328.15
2022-12-04T00:19:04.619Z,101330.97
2022-12-04T00:20:04.852Z,101331.62
2022-12-04T00:21:08.926Z,101332.88
2022-12-04T00:22:05.170Z,101330.81
2022-12-04T00:23:05.208Z,101328.9
2022-12-04T00:24:05.692Z,101331.73
2022-12-04T00:25:05.513Z,101325.87
2022-12-04T00:26:09.636Z,101324.01
2022-12-04T00:27:05.909Z,101326.12
2022-12-04T00:28:05.961Z,101319.73
2022-12-04T00:29:05.909Z,101326.12
2022-12-04T00:30:06.667Z,101326.42
2022-12-04T00:31:06.852Z,101326.84
2022-12-04T00:32:06.033Z,101324.96
2022-12-04T00:33:06.016Z,101328.61
2022-12-04T00:34:08.186Z,101322.11
2022-12-04T00:35:06.465Z,101326.88
2022-12-04T00:36:07.701Z,101328.7
2022-12-04T00:37:05.995Z,101327.2
2022-12-04T00:38:06.102Z,101324
2022-12-04T00:39:06.039Z,101322.16
2022-12-04T00:40:06.861Z,101322.23
2022-12-04T00:41:10.010Z,101324.09
2022-12-04T00:42:06.205Z,101325.28
2022-12-04T00:43:06.289Z,101322.19
2022-12-04T00:44:06.284Z,101320.7
2022-12-04T00:45:06.863Z,101323.03
2022-12-04T00:46:06.740Z,101322.95
2022-12-04T00:47:06.305Z,101320.87
2022-12-04T00:48:06.377Z,101322.47
2022-12-04T00:49:06.343Z,101321.05
2022-12-04T00:50:06.980Z,101320.58
2022-12-04T00:51:08.241Z,101322.77
2022-12-04T00:52:06.415Z,101324.83
2022-12-04T00:53:06.448Z,101323.19
2022-12-04T00:54:06.612Z,101324.29
2022-12-04T00:55:06.938Z,101325.23
2022-12-04T00:56:08.049Z,101321.12
2022-12-04T00:57:06.475Z,101319.58
2022-12-04T00:58:06.575Z,101322.64
2022-12-04T00:59:06.513Z,101321.03
2022-12-04T01:00:07.272Z,101326.34
2022-12-04T01:01:08.591Z,101326.42
2022-12-04T01:02:06.564Z,101320.2
2022-12-04T01:03:07.235Z,101321.67
2022-12-04T01:04:06.596Z,101320.47
2022-12-04T01:05:06.898Z,101327.11
2022-12-04T01:06:06.876Z,101319.12
2022-12-04T01:07:06.640Z,101326.94
2022-12-04T01:08:06.961Z,101323.27
2022-12-04T01:09:06.727Z,101323.49
2022-12-04T01:10:07.833Z,101319.88
2022-12-04T01:11:06.929Z,101314.95
2022-12-04T01:12:06.739Z,101321.49
2022-12-04T01:13:06.840Z,101314.02
2022-12-04T01:14:07.182Z,101317.86
2022-12-04T01:15:07.263Z,101317.97
2022-12-04T01:16:07.011Z,101317.98
2022-12-04T01:17:06.817Z,101322.79
2022-12-04T01:18:07.146Z,101319.07
2022-12-04T01:19:08.055Z,101324.09
2022-12-04T01:20:07.308Z,101317.41
2022-12-04T01:21:06.860Z,101320.06
2022-12-04T01:22:06.867Z,101314
2022-12-04T01:23:06.880Z,101317.62
2022-12-04T01:24:07.533Z,101322.23
2022-12-04T01:25:07.657Z,101323.73
2022-12-04T01:26:07.180Z,101323.64
2022-12-04T01:27:07.013Z,101321.52
2022-12-04T01:28:06.965Z,101318.05
2022-12-04T01:29:06.994Z,101314.97
2022-12-04T01:30:07.467Z,101319.47
2022-12-04T01:31:08.727Z,101319
2022-12-04T01:32:07.115Z,101315.5
2022-12-04T01:33:07.068Z,101319.38
2022-12-04T01:34:07.085Z,101315.41
2022-12-04T01:35:07.477Z,101314.12
2022-12-04T01:36:09.985Z,101317.69
2022-12-04T01:37:08.016Z,101315.11
2022-12-04T01:38:07.143Z,101310.38
2022-12-04T01:39:07.161Z,101309.09
2022-12-04T01:40:07.835Z,101309.01
2022-12-04T01:41:08.050Z,101310.71
2022-12-04T01:42:11.242Z,101313.7
2022-12-04T01:43:12.177Z,101311.25
2022-12-04T01:46:14.955Z,101310.7
2022-12-04T01:47:14.881Z,101312.27
2022-12-04T01:48:27.253Z,101314.25
2022-12-04T01:49:25.049Z,101313.81
2022-12-04T01:50:21.825Z,101314.73
2022-12-04T01:51:30.384Z,101313.84
2022-12-04T01:52:22.716Z,101314.77
2022-12-04T01:53:22.276Z,101315.52
2022-12-04T01:54:27.508Z,101315.05
2022-12-04T01:55:24.592Z,101310.52
2022-12-04T01:56:26.521Z,101310.33
2022-12-04T01:57:26.217Z,101310.68
2022-12-04T01:58:27.549Z,101315.87
2022-12-04T01:59:26.819Z,101312.3
2022-12-04T02:00:24.370Z,101312.91
2022-12-04T02:01:27.393Z,101309.27
2022-12-04T02:02:27.451Z,101311.09
2022-12-04T02:03:24.383Z,101312.41
2022-12-04T02:04:24.363Z,101310.66
2022-12-04T02:05:24.281Z,101309.12
2022-12-04T02:06:24.514Z,101310.14
2022-12-04T02:07:24.399Z,101310.91
2022-12-04T02:08:25.080Z,101311.6
2022-12-04T02:09:26.825Z,101314.8
2022-12-04T02:10:31.205Z,101310.75
2022-12-04T02:13:36.353Z,101306.38
2022-12-04T02:14:39.727Z,101308.44
2022-12-04T02:15:45.465Z,101306.7
2022-12-04T02:18:46.263Z,101310.25
2022-12-04T02:21:48.983Z,101307.23
2022-12-04T02:30:05.913Z,101302.56
2022-12-04T02:31:07.469Z,101299.88
2022-12-04T02:35:14.780Z,101300.94
2022-12-04T02:36:14.071Z,101295.3
2022-12-04T02:37:17.354Z,101300.86
2022-12-04T02:38:22.087Z,101298.57
2022-12-04T02:41:27.454Z,101297.66
2022-12-04T02:43:29.286Z,101294.5
2022-12-04T02:44:34.524Z,101295.77
2022-12-04T02:45:29.189Z,101294.28
2022-12-04T02:46:34.737Z,101293.38
2022-12-04T02:47:26.392Z,101298.42
2022-12-04T02:48:28.068Z,101292.14
2022-12-04T02:49:29.319Z,101297.94
2022-12-04T02:50:27.345Z,101299.27
2022-12-04T02:51:27.982Z,101297.87
2022-12-04T02:52:30.856Z,101299.11
2022-12-04T02:53:31.793Z,101302.85
2022-12-04T02:54:36.681Z,101300.59
2022-12-04T02:55:42.139Z,101301.11
2022-12-04T02:56:36.658Z,101304.67
2022-12-04T02:57:35.809Z,101301.76
2022-12-04T02:58:39.693Z,101302.64
2022-12-04T02:59:37.983Z,101300.08
2022-12-04T03:00:36.748Z,101299.61
2022-12-04T03:01:42.119Z,101304.33
2022-12-04T03:03:42.821Z,101297.94
2022-12-04T03:04:46.770Z,101303.33
2022-12-04T03:06:47.306Z,101300.95
2022-12-04T03:09:51.150Z,101300.41
2022-12-04T03:10:51.179Z,101300.26
2022-12-04T03:11:51.837Z,101301.17
2022-12-04T03:15:58.736Z,101304.71
2022-12-04T03:16:57.318Z,101299.61
2022-12-04T03:19:01.536Z,101298.22
2022-12-04T03:19:59.699Z,101300.84
2022-12-04T03:21:02.498Z,101298.8
2022-12-04T03:21:59.912Z,101300.88
2022-12-04T03:23:02.180Z,101297.98
2022-12-04T03:25:05.274Z,101297.4
2022-12-04T03:26:10.291Z,101297.17
2022-12-04T03:27:14.139Z,101292.48
2022-12-04T03:28:15.939Z,101299.07
2022-12-04T03:29:21.071Z,101292.89
2022-12-04T03:30:15.305Z,101292.19
2022-12-04T03:31:14.769Z,101294.75
2022-12-04T03:34:19.472Z,101294.53
2022-12-04T03:35:18.849Z,101290.66
2022-12-04T03:37:23.783Z,101294.84
2022-12-04T03:40:30.101Z,101294.25
2022-12-04T03:46:41.214Z,101293.88
2022-12-04T03:47:42.594Z,101294.87
2022-12-04T03:48:42.475Z,101295.34
2022-12-04T03:50:42.604Z,101296.18
2022-12-04T03:51:41.007Z,101294.88
2022-12-04T03:53:45.470Z,101295.22
2022-12-04T03:54:47.941Z,101299.23
2022-12-04T03:56:48.721Z,101301.48
2022-12-04T03:57:47.833Z,101295.7
2022-12-04T03:58:48.074Z,101300.36
2022-12-04T03:59:56.055Z,101298.61
2022-12-04T04:00:50.067Z,101298.11
2022-12-04T04:01:49.382Z,101301.72
2022-12-04T04:03:53.561Z,101295.86
2022-12-04T04:04:51.524Z,101297.22
2022-12-04T04:05:52.879Z,101300.06
2022-12-04T04:07:54.319Z,101294.62
2022-12-04T04:08:54.541Z,101298.53
2022-12-04T04:12:58.278Z,101295.98
2022-12-04T04:14:03.140Z,101298.97
2022-12-04T04:16:04.624Z,101296.48
2022-12-04T04:17:06.221Z,101298.41
2022-12-04T04:18:02.688Z,101298.27
2022-12-04T04:19:02.990Z,101297.33
2022-12-04T04:20:04.932Z,101301.12
2022-12-04T04:21:02.507Z,101299.25
2022-12-04T04:22:04.224Z,101295.88
2022-12-04T04:23:03.860Z,101296.88
2022-12-04T04:24:04.349Z,101293.34
2022-12-04T04:25:05.459Z,101297.27
2022-12-04T04:26:03.842Z,101294.86
2022-12-04T04:27:02.779Z,101298.34
2022-12-04T04:28:02.601Z,101298.74
2022-12-04T04:29:02.700Z,101291.16
2022-12-04T04:30:02.761Z,101296.09
2022-12-04T04:31:06.197Z,101294.33
2022-12-04T04:32:06.848Z,101296.26
2022-12-04T04:33:07.892Z,101297.73
2022-12-04T04:35:13.459Z,101299.38
2022-12-04T04:36:18.177Z,101303.95
2022-12-04T04:40:33.731Z,101297.98
2022-12-04T04:41:39.777Z,101292.47
2022-12-04T04:43:36.813Z,101295.98
2022-12-04T04:46:45.968Z,101293.65
2022-12-04T04:48:48.140Z,101289.38
2022-12-04T04:49:46.103Z,101288.08
2022-12-04T04:50:46.065Z,101293.32
2022-12-04T04:51:45.783Z,101290.44
2022-12-04T04:52:49.754Z,101297.8
2022-12-04T04:53:47.660Z,101291.89
2022-12-04T04:54:46.953Z,101293.02
2022-12-04T04:55:46.277Z,101294.8
2022-12-04T04:56:46.848Z,101294.2
2022-12-04T04:57:46.065Z,101295.47
2022-12-04T04:58:46.052Z,101297.11
2022-12-04T04:59:46.083Z,101294.31
2022-12-04T05:00:50.786Z,101296.12
2022-12-04T05:01:47.646Z,101299.72
2022-12-04T05:02:47.261Z,101296.39
2022-12-04T05:03:47.062Z,101293.24
2022-12-04T05:04:47.051Z,101298.17
2022-12-04T05:05:47.082Z,101295.28
2022-12-04T05:06:47.112Z,101302.16
2022-12-04T05:07:47.145Z,101294.97
2022-12-04T05:08:47.117Z,101295.84
2022-12-04T05:09:47.116Z,101289.72
2022-12-04T05:10:47.235Z,101293.47
2022-12-04T05:11:47.164Z,101295.02
2022-12-04T05:12:47.141Z,101293.22
2022-12-04T05:13:47.180Z,101297.77
2022-12-04T05:14:48.187Z,101292
2022-12-04T05:16:51.715Z,101299.55
2022-12-04T05:17:51.703Z,101297.89
2022-12-04T05:18:51.846Z,101296.27
2022-12-04T05:19:52.066Z,101296.88
2022-12-04T05:20:51.844Z,101298.41
2022-12-04T05:21:51.888Z,101297.98
2022-12-04T05:22:51.770Z,101301.22
2022-12-04T05:23:51.812Z,101300.43
2022-12-04T05:24:51.947Z,101302.58
2022-12-04T05:25:58.376Z,101295.75
2022-12-04T05:26:54.641Z,101300.83
2022-12-04T05:27:54.637Z,101302.77
2022-12-04T05:28:54.646Z,101300.8
2022-12-04T05:29:55.503Z,101300.59
2022-12-04T05:30:55.694Z,101300.66
2022-12-04T05:31:54.675Z,101303.58
2022-12-04T05:32:54.671Z,101301.88
2022-12-04T05:33:54.684Z,101304.06
2022-12-04T05:34:55.510Z,101307.39
2022-12-04T05:36:02.281Z,101302.88
2022-12-04T05:36:58.538Z,101307.41
2022-12-04T05:37:58.510Z,101307.8
2022-12-04T05:38:58.508Z,101305.97
2022-12-04T05:39:58.878Z,101301.9
2022-12-04T05:40:58.900Z,101307.83
2022-12-04T05:41:58.590Z,101306.97
2022-12-04T05:42:58.564Z,101305.11
2022-12-04T05:43:58.568Z,101306.92
2022-12-04T05:44:58.771Z,101304.59
2022-12-04T05:46:02.342Z,101306.8
2022-12-04T05:46:58.725Z,101304.25
2022-12-04T05:47:58.665Z,101305.41
2022-12-04T05:48:58.669Z,101305.33
2022-12-04T05:49:58.839Z,101310.36
2022-12-04T05:50:58.681Z,101304.59
2022-12-04T05:51:58.779Z,101300.87
2022-12-04T05:52:58.791Z,101302.16
2022-12-04T05:53:58.715Z,101303.6
2022-12-04T05:54:58.805Z,101302.79
2022-12-04T05:55:59.629Z,101307.09
2022-12-04T05:56:58.921Z,101314.69
2022-12-04T05:57:59.066Z,101309.05
2022-12-04T05:58:58.768Z,101320.93
2022-12-04T05:59:58.913Z,101318.14
2022-12-04T06:00:58.806Z,101317.91
2022-12-04T06:01:58.897Z,101315.83
2022-12-04T06:02:58.878Z,101316.93
2022-12-04T06:03:58.849Z,101322.81
2022-12-04T06:04:58.839Z,101327.36
2022-12-04T06:05:58.878Z,101321.8
2022-12-04T06:06:58.890Z,101328.32
2022-12-04T06:07:59.002Z,101323.74
2022-12-04T06:08:59.621Z,101323.77
2022-12-04T06:09:59.049Z,101322.2
2022-12-04T06:10:58.935Z,101322.41
2022-12-04T06:11:59.114Z,101326.91
2022-12-04T06:12:58.995Z,101326.58
2022-12-04T06:14:00.283Z,101324.72
2022-12-04T06:14:59.163Z,101322.86
2022-12-04T06:15:59.012Z,101322.86
2022-12-04T06:16:59.067Z,101323.23
2022-12-04T06:17:59.050Z,101320.66
2022-12-04T06:19:01.477Z,101322.22
2022-12-04T06:19:59.605Z,101324.45
2022-12-04T06:20:59.155Z,101324.69
2022-12-04T06:21:59.072Z,101320.06
2022-12-04T06:22:59.338Z,101319.1
2022-12-04T06:23:59.109Z,101318.62
2022-12-04T06:24:59.096Z,101320.04
2022-12-04T06:26:06.943Z,101323.38
2022-12-04T06:27:26.898Z,101321.07
2022-12-04T06:28:05.114Z,101324.06
2022-12-04T06:29:04.920Z,101324.18
2022-12-04T06:30:05.512Z,101320.34
2022-12-04T06:31:06.486Z,101323.71
2022-12-04T06:32:05.309Z,101327.28
2022-12-04T06:33:04.986Z,101328.32
2022-12-04T06:34:05.643Z,101325.94
2022-12-04T06:35:05.391Z,101325.65
2022-12-04T06:36:06.657Z,101325.89
2022-12-04T06:37:05.017Z,101322.89
2022-12-04T06:38:05.069Z,101323.3
2022-12-04T06:39:05.075Z,101326.23
2022-12-04T06:40:05.865Z,101329.61
2022-12-04T06:41:09.265Z,101327.59
2022-12-04T06:42:05.654Z,101331.24
2022-12-04T06:43:05.542Z,101331
2022-12-04T06:44:05.693Z,101329.09
2022-12-04T06:45:06.030Z,101332.2
2022-12-04T06:46:07.396Z,101331.31
2022-12-04T06:47:05.820Z,101333.64
2022-12-04T06:48:05.774Z,101332.7
2022-12-04T06:49:05.581Z,101332.36
2022-12-04T06:50:06.367Z,101335.18
2022-12-04T06:51:09.050Z,101331.56
2022-12-04T06:52:06.129Z,101331.84
2022-12-04T06:53:08.505Z,101330.27
2022-12-04T06:54:06.137Z,101328.02
2022-12-04T06:55:06.589Z,101323.16
2022-12-04T06:56:08.003Z,101325.44
2022-12-04T06:57:06.183Z,101323.88
2022-12-04T06:58:06.204Z,101323.91
2022-12-04T06:59:06.207Z,101326.17
2022-12-04T07:00:06.727Z,101326.61
2022-12-04T07:01:10.021Z,101327.73
2022-12-04T07:02:06.489Z,101327.29
2022-12-04T07:03:06.450Z,101323.92
2022-12-04T07:04:06.423Z,101331.52
2022-12-04T07:05:07.022Z,101331.42
2022-12-04T07:06:10.540Z,101328.59
2022-12-04T07:07:08.406Z,101332.56
2022-12-04T07:08:06.978Z,101327
2022-12-04T07:09:08.477Z,101330.89
2022-12-04T07:10:07.326Z,101335.73
2022-12-04T07:11:07.000Z,101337.55
2022-12-04T07:12:06.929Z,101340.77
2022-12-04T07:13:07.358Z,101343.16
2022-12-04T07:14:07.232Z,101344.84
2022-12-04T07:15:07.258Z,101346.94
2022-12-04T07:16:08.207Z,101345.37
2022-12-04T07:17:06.940Z,101350.24
2022-12-04T07:18:07.089Z,101351.94
2022-12-04T07:19:07.562Z,101350.7
2022-12-04T07:20:07.347Z,101351.84
2022-12-04T07:22:07.185Z,101353.96
2022-12-04T07:23:07.603Z,101349.38
2022-12-04T07:24:07.393Z,101348.48
2022-12-04T07:25:07.737Z,101350.07
2022-12-04T07:26:08.367Z,101350.8
2022-12-04T07:27:07.268Z,101348.9
2022-12-04T07:28:07.313Z,101350.72
2022-12-04T07:29:07.372Z,101344.77
2022-12-04T07:30:14.060Z,101345.95
2022-12-04T07:31:16.749Z,101344.85
2022-12-04T07:32:13.169Z,101348.1
2022-12-04T07:33:13.310Z,101347.58
2022-12-04T07:34:13.154Z,101349.12
2022-12-04T07:35:13.107Z,101345.91
2022-12-04T07:36:15.158Z,101344.89
2022-12-04T07:37:13.148Z,101349.73
2022-12-04T07:38:13.123Z,101358.97
2022-12-04T07:39:13.174Z,101354.25
2022-12-04T07:40:13.631Z,101358.3
2022-12-04T07:41:13.909Z,101353.19
2022-12-04T07:42:13.182Z,101357.54
2022-12-04T07:43:13.367Z,101358.84
2022-12-04T07:44:13.248Z,101358.92
2022-12-04T07:45:13.268Z,101357.08
2022-12-04T07:46:15.382Z,101357.39
2022-12-04T07:47:13.508Z,101356.69
2022-12-04T07:48:13.281Z,101363.02
2022-12-04T07:49:13.281Z,101364.83
2022-12-04T07:50:13.322Z,101369.56
2022-12-04T07:51:14.876Z,101364.5
2022-12-04T07:52:13.318Z,101368.52
2022-12-04T07:53:13.372Z,101364.24
2022-12-04T07:54:13.336Z,101364.16
2022-12-04T07:55:14.841Z,101367.62
2022-12-04T07:56:14.290Z,101362.61
2022-12-04T07:57:13.790Z,101366.55
2022-12-04T07:58:13.803Z,101363.37
2022-12-04T07:59:13.820Z,101361.86
2022-12-04T08:00:14.335Z,101366.2
2022-12-04T08:01:18.495Z,101368.14
2022-12-04T08:02:14.917Z,101366.84
2022-12-04T08:03:14.940Z,101365.84
2022-12-04T08:04:15.191Z,101368.63
2022-12-04T08:05:15.193Z,101371.35
2022-12-04T08:06:15.509Z,101373.77
2022-12-04T08:07:14.967Z,101373.91
2022-12-04T08:08:15.046Z,101365.36
2022-12-04T08:09:14.992Z,101364.02
2022-12-04T08:10:15.308Z,101363.81
2022-12-04T08:11:16.413Z,101360.39
2022-12-04T08:12:15.128Z,101363.59
2022-12-04T08:13:15.044Z,101361.02
2022-12-04T08:14:15.016Z,101368.61
2022-12-04T08:15:15.233Z,101366.17
2022-12-04T08:16:15.211Z,101374.94
2022-12-04T08:17:15.159Z,101369.7
2022-12-04T08:18:15.104Z,101366.46
2022-12-04T08:19:15.233Z,101364.66
2022-12-04T08:20:15.199Z,101367.73
2022-12-04T08:21:16.742Z,101366.52
2022-12-04T08:22:18.033Z,101366.09
2022-12-04T08:23:16.718Z,101363.88
2022-12-04T08:24:17.288Z,101361.91
2022-12-04T08:25:16.759Z,101360
2022-12-04T08:26:16.756Z,101360.81
2022-12-04T08:27:16.786Z,101360.02
2022-12-04T08:28:16.754Z,101360.61
2022-12-04T08:29:16.822Z,101358.04
2022-12-04T08:30:17.083Z,101356.44
2022-12-04T08:31:18.105Z,101353.77
2022-12-04T08:32:16.786Z,101354.95
2022-12-04T08:33:16.846Z,101351.24
2022-12-04T08:34:16.818Z,101351.78
2022-12-04T08:35:17.091Z,101356.38
2022-12-04T08:36:17.710Z,101352.43
2022-12-04T08:37:16.892Z,101352.71
2022-12-04T08:38:16.875Z,101356.48
2022-12-04T08:39:16.898Z,101356.8
2022-12-04T08:40:16.921Z,101357.3
2022-12-04T08:41:18.627Z,101360.83
2022-12-04T08:42:16.942Z,101353.21
2022-12-04T08:43:16.943Z,101356.43
2022-12-04T08:44:16.945Z,101351.94
2022-12-04T08:45:17.154Z,101354.53
2022-12-04T08:46:18.368Z,101348.05
2022-12-04T08:47:17.010Z,101353.2
2022-12-04T08:48:17.007Z,101350.48
2022-12-04T08:49:17.027Z,101350.51
2022-12-04T08:50:17.216Z,101352.64
2022-12-04T08:51:18.840Z,101352.46
2022-12-04T08:52:17.118Z,101350.91
2022-12-04T08:53:17.261Z,101350.67
2022-12-04T08:54:17.105Z,101353.12
2022-12-04T08:55:17.214Z,101350.27
2022-12-04T08:56:17.104Z,101349.69
2022-12-04T08:57:17.119Z,101351.41
2022-12-04T08:58:17.635Z,101356.04
2022-12-04T08:59:17.153Z,101353.17
2022-12-04T09:00:17.570Z,101355.55
2022-12-04T09:01:17.366Z,101354.28
2022-12-04T09:02:17.206Z,101355.3
2022-12-04T09:03:18.585Z,101355.61
2022-12-04T09:04:17.577Z,101352.06
2022-12-04T09:05:17.594Z,101352.32
2022-12-04T09:06:17.622Z,101351.86
2022-12-04T09:07:17.226Z,101356.52
2022-12-04T09:08:17.271Z,101357.77
2022-12-04T09:09:17.292Z,101352.94
2022-12-04T09:10:17.432Z,101350.33
2022-12-04T09:11:18.860Z,101356.52
2022-12-04T09:12:17.313Z,101355.26
2022-12-04T09:13:17.454Z,101348.89
2022-12-04T09:14:17.441Z,101350.42
2022-12-04T09:15:17.355Z,101349.08
2022-12-04T09:16:19.459Z,101346.27
2022-12-04T09:17:17.371Z,101342.87
2022-12-04T09:18:17.386Z,101341.27
2022-12-04T09:19:17.410Z,101344.06
2022-12-04T09:20:17.640Z,101347.09
2022-12-04T09:21:18.352Z,101347.82
2022-12-04T09:22:17.439Z,101343.08
2022-12-04T09:23:17.463Z,101341.62
2022-12-04T09:24:17.470Z,101345.81
2022-12-04T09:25:17.514Z,101342.77
2022-12-04T09:26:19.869Z,101346.23
2022-12-04T09:27:17.525Z,101343.43
2022-12-04T09:28:17.778Z,101345.84
2022-12-04T09:29:17.552Z,101349.44
2022-12-04T09:30:17.549Z,101343.9
2022-12-04T09:31:18.249Z,101341.44
2022-12-04T09:32:17.675Z,101342.59
2022-12-04T09:33:17.582Z,101342.34
2022-12-04T09:34:17.587Z,101343.59
2022-12-04T09:35:17.616Z,101339.55
2022-12-04T09:36:17.599Z,101344.14
2022-12-04T09:37:17.656Z,101339.94
2022-12-04T09:38:17.633Z,101333.89
2022-12-04T09:39:17.650Z,101339.64
2022-12-04T09:44:39.471Z,101334.14
2022-12-04T09:45:37.435Z,101335.7
2022-12-04T09:47:39.713Z,101339.3
2022-12-04T09:48:40.846Z,101335.03
2022-12-04T09:49:41.266Z,101330.99
2022-12-04T09:50:42.601Z,101336.16
2022-12-04T09:51:40.555Z,101334.13
2022-12-04T09:53:45.019Z,101330.42
2022-12-04T09:54:42.347Z,101336.45
2022-12-04T09:56:47.883Z,101337.91
2022-12-04T09:57:47.374Z,101335.92
2022-12-04T09:59:46.873Z,101337.14
2022-12-04T10:00:49.676Z,101339.36
2022-12-04T10:01:47.984Z,101340.31
2022-12-04T10:03:47.782Z,101338.05
2022-12-04T10:04:47.700Z,101338.36
2022-12-04T10:06:53.450Z,101339.41
2022-12-04T10:08:59.914Z,101335.34
2022-12-04T10:23:44.505Z,101334.45
2022-12-04T10:25:38.784Z,101331.05
2022-12-04T10:26:43.683Z,101331.25
2022-12-04T10:27:42.566Z,101327.66
2022-12-04T10:28:43.272Z,101326.3
2022-12-04T10:29:42.032Z,101330.19
2022-12-04T10:30:41.375Z,101328.14
2022-12-04T10:31:40.250Z,101322.19
2022-12-04T10:32:41.884Z,101321.78
2022-12-04T10:34:45.572Z,101318.92
2022-12-04T10:35:43.523Z,101317.73
2022-12-04T10:36:43.748Z,101323.52
2022-12-04T10:37:43.163Z,101325.17
2022-12-04T10:40:50.399Z,101316.03
2022-12-04T10:43:55.532Z,101319.41
2022-12-04T10:44:55.530Z,101316.61
2022-12-04T10:45:55.328Z,101319.46
2022-12-04T10:46:59.426Z,101320.08
2022-12-04T10:47:55.870Z,101318.98
2022-12-04T10:50:04.502Z,101312.55
2022-12-04T10:51:00.832Z,101311.16
2022-12-04T10:52:01.115Z,101310.55
2022-12-04T10:53:00.757Z,101313.14
2022-12-04T10:54:00.777Z,101308.83
2022-12-04T10:55:01.394Z,101310.52
2022-12-04T10:57:07.100Z,101307.97
2022-12-04T10:58:15.135Z,101310.12
2022-12-04T10:59:06.383Z,101303.59
2022-12-04T11:01:12.792Z,101304.77
2022-12-04T11:04:20.795Z,101298.67
2022-12-04T11:05:25.015Z,101302.78
2022-12-04T11:06:24.369Z,101301.42
2022-12-04T11:07:23.346Z,101302.96
2022-12-04T11:08:23.630Z,101303.62
2022-12-04T11:09:23.521Z,101304.61
2022-12-04T11:10:27.613Z,101301.74
2022-12-04T11:11:33.647Z,101295.83
2022-12-04T11:12:24.902Z,101297.17
2022-12-04T11:13:24.911Z,101299.1
2022-12-04T11:14:24.905Z,101292.81
2022-12-04T11:15:25.391Z,101302.77
2022-12-04T11:16:32.350Z,101298.94
2022-12-04T11:17:28.639Z,101299.16
2022-12-04T11:18:33.736Z,101295.72
2022-12-04T11:19:32.201Z,101301.44
2022-12-04T11:20:30.027Z,101300.65
2022-12-04T11:21:30.985Z,101302.83
2022-12-04T11:22:31.122Z,101307.38
2022-12-04T11:23:32.612Z,101301.67
2022-12-04T11:24:34.050Z,101307.86
2022-12-04T11:25:33.905Z,101304.2
2022-12-04T11:26:34.951Z,101307.39
2022-12-04T11:27:34.678Z,101300.55
2022-12-04T11:28:47.891Z,101306.02
2022-12-04T11:29:41.929Z,101298.61
2022-12-04T11:30:38.873Z,101295.62
2022-12-04T11:31:38.813Z,101292.53
2022-12-04T11:32:39.010Z,101299.16
2022-12-04T11:33:40.127Z,101297.42
2022-12-04T11:34:40.627Z,101297.7
2022-12-04T11:35:39.396Z,101299.35
2022-12-04T11:36:40.394Z,101299.81
2022-12-04T11:37:44.983Z,101299.11
2022-12-04T11:38:42.216Z,101293.71
2022-12-04T11:39:44.493Z,101299.35
2022-12-04T11:40:48.744Z,101297.55
2022-12-04T11:41:45.449Z,101294.56
2022-12-04T11:42:56.570Z,101291.09
2022-12-04T11:43:48.813Z,101294.62
2022-12-04T11:44:52.160Z,101297.67
2022-12-04T11:45:55.891Z,101297.53
2022-12-04T11:46:53.996Z,101297.14
2022-12-04T11:47:53.734Z,101296.54
2022-12-04T11:48:53.156Z,101296.78
2022-12-04T11:52:07.361Z,101295.63
2022-12-04T11:53:05.158Z,101292.89
2022-12-04T11:55:07.196Z,101292.81
2022-12-04T12:00:16.310Z,101296.98
2022-12-04T12:21:15.682Z,101304.34
2022-12-04T12:26:29.667Z,101300.57
2022-12-04T12:30:43.581Z,101303.69
2022-12-04T12:32:46.975Z,101306.38
2022-12-04T12:33:42.890Z,101305.58
2022-12-04T12:34:43.469Z,101302.39
2022-12-04T12:36:47.074Z,101302.96
2022-12-04T12:37:49.469Z,101302.25
2022-12-04T12:38:51.095Z,101296.75
2022-12-04T12:39:50.061Z,101299.69
2022-12-04T12:40:50.756Z,101300.88
2022-12-04T12:41:52.502Z,101304.94
2022-12-04T12:44:02.607Z,101296.53
2022-12-04T12:45:02.195Z,101299.94
2022-12-04T12:46:10.395Z,101297.26
2022-12-04T12:47:07.253Z,101298.5
2022-12-04T12:48:13.740Z,101301.92
2022-12-04T12:52:15.353Z,101298.25
2022-12-04T12:53:15.159Z,101303.48
2022-12-04T12:56:18.642Z,101303.34
2022-12-04T12:59:23.929Z,101308.51
2022-12-04T13:00:23.594Z,101310.36
2022-12-04T13:02:27.252Z,101302.73
2022-12-04T13:03:32.679Z,101305.93
2022-12-04T13:05:36.769Z,101302.11
2022-12-04T13:06:31.509Z,101299.6
2022-12-04T13:08:35.538Z,101302.09
2022-12-04T13:09:34.295Z,101303.98
2022-12-04T13:10:43.423Z,101304.98
2022-12-04T13:11:36.098Z,101311.06
2022-12-04T13:13:38.983Z,101314.7
2022-12-04T13:14:35.878Z,101314.08
2022-12-04T13:15:40.587Z,101311.14
2022-12-04T13:16:42.593Z,101307.66
2022-12-04T13:17:39.704Z,101311.84
2022-12-04T13:18:45.015Z,101308.8
2022-12-04T13:19:45.737Z,101306.31
2022-12-04T13:20:50.775Z,101310.12
2022-12-04T13:21:54.365Z,101309.47
2022-12-04T13:23:58.403Z,101311.89
2022-12-04T13:29:16.762Z,101312.02
2022-12-04T13:31:25.377Z,101312.77
2022-12-04T13:34:43.232Z,101310.45
2022-12-04T13:42:01.740Z,101309.43
2022-12-04T13:44:06.944Z,101316.2
2022-12-04T13:45:08.639Z,101313
2022-12-04T13:46:07.109Z,101310.64
2022-12-04T13:47:06.598Z,101302.81
2022-12-04T13:48:05.676Z,101308.91
2022-12-04T13:57:19.501Z,101307.64
2022-12-04T13:58:26.293Z,101307.66
2022-12-04T14:00:30.456Z,101306.31
2022-12-04T14:01:24.671Z,101301.72
2022-12-04T14:03:39.987Z,101311.41
2022-12-04T14:04:39.615Z,101312.95
2022-12-04T14:05:40.464Z,101313.11
2022-12-04T14:06:37.466Z,101314.26
2022-12-04T14:07:38.329Z,101311.78
2022-12-04T14:08:39.334Z,101312.38
2022-12-04T14:09:40.761Z,101314.33
2022-12-04T14:10:38.805Z,101311.38
2022-12-04T14:11:48.201Z,101308.62
2022-12-04T14:12:42.133Z,101308.61
2022-12-04T14:13:48.317Z,101311.23
2022-12-04T14:14:52.268Z,101306.81
2022-12-04T14:15:44.876Z,101301.98
2022-12-04T14:16:48.581Z,101296.56
2022-12-04T14:17:55.853Z,101295.94
2022-12-04T14:18:48.766Z,101294.62
2022-12-04T14:19:52.018Z,101296.62
2022-12-04T14:20:57.114Z,101294.67
2022-12-04T14:21:48.765Z,101293.9
2022-12-04T14:22:48.808Z,101293.52
2022-12-04T14:23:49.363Z,101294.23
2022-12-04T14:24:49.898Z,101293
2022-12-04T14:25:48.842Z,101294.03